sensor_id;sensor_type;location;lat;lon;timestamp;temperature;humidity
1379;DHT22;683;48.738;9.226;2023-07-13T00:00:23;19.00;75.10
1379;DHT22;683;48.738;9.226;2023-07-13T00:02:51;18.90;75.20
1379;DHT22;683;48.738;9.226;2023-07-13T00:05:19;18.90;75.40
1379;DHT22;683;48.738;9.226;2023-07-13T00:07:48;18.90;75.20
1379;DHT22;683;48.738;9.226;2023-07-13T00:10:16;18.80;76.20
1379;DHT22;683;48.738;9.226;2023-07-13T00:12:44;18.80;75.30
1379;DHT22;683;48.738;9.226;2023-07-13T00:15:13;18.70;75.20
1379;DHT22;683;48.738;9.226;2023-07-13T00:17:42;18.70;75.70
1379;DHT22;683;48.738;9.226;2023-07-13T00:20:11;18.60;74.80
1379;DHT22;683;48.738;9.226;2023-07-13T00:22:39;18.50;75.00
1379;DHT22;683;48.738;9.226;2023-07-13T00:25:09;18.40;75.30
1379;DHT22;683;48.738;9.226;2023-07-13T00:27:37;18.30;75.70
1379;DHT22;683;48.738;9.226;2023-07-13T00:30:06;18.20;76.70
1379;DHT22;683;48.738;9.226;2023-07-13T00:32:35;18.10;77.00
1379;DHT22;683;48.738;9.226;2023-07-13T00:35:02;18.00;77.00
1379;DHT22;683;48.738;9.226;2023-07-13T00:37:30;17.90;77.30
1379;DHT22;683;48.738;9.226;2023-07-13T00:39:58;17.90;77.60
1379;DHT22;683;48.738;9.226;2023-07-13T00:42:27;17.70;78.30
1379;DHT22;683;48.738;9.226;2023-07-13T00:48:18;17.50;79.30
1379;DHT22;683;48.738;9.226;2023-07-13T00:50:51;17.40;79.70
1379;DHT22;683;48.738;9.226;2023-07-13T00:53:20;17.30;80.30
1379;DHT22;683;48.738;9.226;2023-07-13T00:55:49;17.20;80.90
1379;DHT22;683;48.738;9.226;2023-07-13T00:58:18;17.20;80.70
1379;DHT22;683;48.738;9.226;2023-07-13T01:00:47;17.10;80.80
1379;DHT22;683;48.738;9.226;2023-07-13T01:03:18;17.10;81.00
1379;DHT22;683;48.738;9.226;2023-07-13T01:05:47;17.10;81.70
1379;DHT22;683;48.738;9.226;2023-07-13T01:08:15;17.00;82.70
1379;DHT22;683;48.738;9.226;2023-07-13T01:10:51;17.00;81.70
1379;DHT22;683;48.738;9.226;2023-07-13T01:13:20;17.00;81.20
1379;DHT22;683;48.738;9.226;2023-07-13T01:15:50;17.00;80.70
1379;DHT22;683;48.738;9.226;2023-07-13T01:18:21;17.10;81.30
1379;DHT22;683;48.738;9.226;2023-07-13T01:20:54;17.20;80.00
1379;DHT22;683;48.738;9.226;2023-07-13T01:23:23;17.30;79.20
1379;DHT22;683;48.738;9.226;2023-07-13T01:25:52;17.40;79.00
1379;DHT22;683;48.738;9.226;2023-07-13T01:28:21;17.40;79.10
1379;DHT22;683;48.738;9.226;2023-07-13T01:30:53;17.40;78.10
1379;DHT22;683;48.738;9.226;2023-07-13T01:33:21;17.40;77.40
1379;DHT22;683;48.738;9.226;2023-07-13T01:35:49;17.40;77.40
1379;DHT22;683;48.738;9.226;2023-07-13T01:38:19;17.30;77.40
1379;DHT22;683;48.738;9.226;2023-07-13T01:40:47;17.20;77.80
1379;DHT22;683;48.738;9.226;2023-07-13T01:43:14;17.00;78.40
1379;DHT22;683;48.738;9.226;2023-07-13T01:45:42;16.90;79.20
1379;DHT22;683;48.738;9.226;2023-07-13T01:48:11;16.80;79.10
1379;DHT22;683;48.738;9.226;2023-07-13T01:50:39;16.70;80.00
1379;DHT22;683;48.738;9.226;2023-07-13T01:53:07;16.70;80.30
1379;DHT22;683;48.738;9.226;2023-07-13T01:55:37;16.60;80.50
1379;DHT22;683;48.738;9.226;2023-07-13T01:58:05;16.50;81.00
1379;DHT22;683;48.738;9.226;2023-07-13T02:00:32;16.50;81.70
1379;DHT22;683;48.738;9.226;2023-07-13T02:03:02;16.40;82.90
1379;DHT22;683;48.738;9.226;2023-07-13T02:05:31;16.20;83.80
1379;DHT22;683;48.738;9.226;2023-07-13T02:07:58;16.10;85.00
1379;DHT22;683;48.738;9.226;2023-07-13T02:10:26;16.00;86.50
1379;DHT22;683;48.738;9.226;2023-07-13T02:12:55;15.90;87.50
1379;DHT22;683;48.738;9.226;2023-07-13T02:15:23;15.80;88.20
1379;DHT22;683;48.738;9.226;2023-07-13T02:17:50;15.70;89.10
1379;DHT22;683;48.738;9.226;2023-07-13T02:20:18;15.60;89.80
1379;DHT22;683;48.738;9.226;2023-07-13T02:22:45;15.60;90.20
1379;DHT22;683;48.738;9.226;2023-07-13T02:25:13;15.50;90.50
1379;DHT22;683;48.738;9.226;2023-07-13T02:27:40;15.40;90.70
1379;DHT22;683;48.738;9.226;2023-07-13T02:30:11;15.40;90.90
1379;DHT22;683;48.738;9.226;2023-07-13T02:32:38;15.30;91.20
1379;DHT22;683;48.738;9.226;2023-07-13T02:35:06;15.20;91.60
1379;DHT22;683;48.738;9.226;2023-07-13T02:37:34;15.10;92.20
1379;DHT22;683;48.738;9.226;2023-07-13T02:40:02;15.10;92.60
1379;DHT22;683;48.738;9.226;2023-07-13T02:42:35;15.00;92.90
1379;DHT22;683;48.738;9.226;2023-07-13T02:45:03;14.90;93.30
1379;DHT22;683;48.738;9.226;2023-07-13T02:47:34;15.00;94.00
1379;DHT22;683;48.738;9.226;2023-07-13T02:50:01;14.90;94.30
1379;DHT22;683;48.738;9.226;2023-07-13T02:52:31;14.90;94.90
1379;DHT22;683;48.738;9.226;2023-07-13T02:54:58;14.90;95.30
1379;DHT22;683;48.738;9.226;2023-07-13T02:57:26;14.80;95.40
1379;DHT22;683;48.738;9.226;2023-07-13T02:59:54;14.80;95.70
1379;DHT22;683;48.738;9.226;2023-07-13T03:02:21;14.70;96.00
1379;DHT22;683;48.738;9.226;2023-07-13T03:04:51;14.70;96.70
1379;DHT22;683;48.738;9.226;2023-07-13T03:07:18;14.70;97.10
1379;DHT22;683;48.738;9.226;2023-07-13T03:09:48;14.70;97.60
1379;DHT22;683;48.738;9.226;2023-07-13T03:12:15;14.70;98.20
1379;DHT22;683;48.738;9.226;2023-07-13T03:14:43;14.70;98.50
1379;DHT22;683;48.738;9.226;2023-07-13T03:17:10;14.70;98.10
1379;DHT22;683;48.738;9.226;2023-07-13T03:19:40;14.80;97.70
1379;DHT22;683;48.738;9.226;2023-07-13T03:22:10;14.90;97.40
1379;DHT22;683;48.738;9.226;2023-07-13T03:24:39;15.00;97.10
1379;DHT22;683;48.738;9.226;2023-07-13T03:27:07;15.10;97.20
1379;DHT22;683;48.738;9.226;2023-07-13T03:29:38;15.30;96.60
1379;DHT22;683;48.738;9.226;2023-07-13T03:32:07;15.40;95.60
1379;DHT22;683;48.738;9.226;2023-07-13T03:34:34;15.60;95.00
1379;DHT22;683;48.738;9.226;2023-07-13T03:37:02;15.70;94.20
1379;DHT22;683;48.738;9.226;2023-07-13T03:39:31;15.90;93.50
1379;DHT22;683;48.738;9.226;2023-07-13T03:41:59;15.90;93.00
1379;DHT22;683;48.738;9.226;2023-07-13T03:44:27;16.00;92.50
1379;DHT22;683;48.738;9.226;2023-07-13T03:46:56;16.10;92.00
1379;DHT22;683;48.738;9.226;2023-07-13T03:49:24;16.20;91.70
1379;DHT22;683;48.738;9.226;2023-07-13T03:51:51;16.30;91.30
1379;DHT22;683;48.738;9.226;2023-07-13T03:54:19;16.40;90.60
1379;DHT22;683;48.738;9.226;2023-07-13T03:56:48;16.50;90.00
1379;DHT22;683;48.738;9.226;2023-07-13T03:59:17;16.60;89.50
1379;DHT22;683;48.738;9.226;2023-07-13T04:01:45;16.70;88.70
1379;DHT22;683;48.738;9.226;2023-07-13T04:04:13;16.80;88.70
1379;DHT22;683;48.738;9.226;2023-07-13T04:06:41;16.90;87.40
1379;DHT22;683;48.738;9.226;2023-07-13T04:09:11;17.00;86.40
1379;DHT22;683;48.738;9.226;2023-07-13T04:11:39;17.00;86.40
1379;DHT22;683;48.738;9.226;2023-07-13T04:14:07;17.10;86.20
1379;DHT22;683;48.738;9.226;2023-07-13T04:16:35;17.10;86.10
1379;DHT22;683;48.738;9.226;2023-07-13T04:19:02;17.10;85.90
1379;DHT22;683;48.738;9.226;2023-07-13T04:21:31;17.10;85.50
1379;DHT22;683;48.738;9.226;2023-07-13T04:23:58;17.20;84.50
1379;DHT22;683;48.738;9.226;2023-07-13T04:26:26;17.30;84.40
1379;DHT22;683;48.738;9.226;2023-07-13T04:28:54;17.40;83.70
1379;DHT22;683;48.738;9.226;2023-07-13T04:31:23;17.50;82.00
1379;DHT22;683;48.738;9.226;2023-07-13T04:33:50;17.50;81.10
1379;DHT22;683;48.738;9.226;2023-07-13T04:36:19;17.50;81.10
1379;DHT22;683;48.738;9.226;2023-07-13T04:38:46;17.50;80.80
1379;DHT22;683;48.738;9.226;2023-07-13T04:41:15;17.50;80.60
1379;DHT22;683;48.738;9.226;2023-07-13T04:43:42;17.50;80.90
1379;DHT22;683;48.738;9.226;2023-07-13T04:46:12;17.40;81.20
1379;DHT22;683;48.738;9.226;2023-07-13T04:48:41;17.40;81.10
1379;DHT22;683;48.738;9.226;2023-07-13T04:51:09;17.40;80.60
1379;DHT22;683;48.738;9.226;2023-07-13T04:53:37;17.40;80.20
1379;DHT22;683;48.738;9.226;2023-07-13T04:56:04;17.30;80.50
1379;DHT22;683;48.738;9.226;2023-07-13T04:58:33;17.30;81.20
1379;DHT22;683;48.738;9.226;2023-07-13T05:01:01;17.30;81.70
1379;DHT22;683;48.738;9.226;2023-07-13T05:03:29;17.20;82.00
1379;DHT22;683;48.738;9.226;2023-07-13T05:06:00;17.20;82.50
1379;DHT22;683;48.738;9.226;2023-07-13T05:08:27;17.30;82.80
1379;DHT22;683;48.738;9.226;2023-07-13T05:10:55;17.30;83.00
1379;DHT22;683;48.738;9.226;2023-07-13T05:13:22;17.40;82.80
1379;DHT22;683;48.738;9.226;2023-07-13T05:15:56;17.60;81.70
1379;DHT22;683;48.738;9.226;2023-07-13T05:18:24;17.70;81.30
1379;DHT22;683;48.738;9.226;2023-07-13T05:21:01;17.90;80.80
1379;DHT22;683;48.738;9.226;2023-07-13T05:23:28;18.00;79.80
1379;DHT22;683;48.738;9.226;2023-07-13T05:25:56;18.10;79.10
1379;DHT22;683;48.738;9.226;2023-07-13T05:28:25;18.30;78.90
1379;DHT22;683;48.738;9.226;2023-07-13T05:30:53;18.40;78.00
1379;DHT22;683;48.738;9.226;2023-07-13T05:33:21;18.50;77.10
1379;DHT22;683;48.738;9.226;2023-07-13T05:35:48;18.50;76.50
1379;DHT22;683;48.738;9.226;2023-07-13T05:38:17;18.60;76.10
1379;DHT22;683;48.738;9.226;2023-07-13T05:40:45;18.70;75.40
1379;DHT22;683;48.738;9.226;2023-07-13T05:43:13;18.70;74.50
1379;DHT22;683;48.738;9.226;2023-07-13T05:45:41;18.80;74.60
1379;DHT22;683;48.738;9.226;2023-07-13T05:48:08;18.80;74.20
1379;DHT22;683;48.738;9.226;2023-07-13T05:50:36;18.80;74.50
1379;DHT22;683;48.738;9.226;2023-07-13T05:53:03;18.80;74.90
1379;DHT22;683;48.738;9.226;2023-07-13T05:55:32;18.90;74.90
1379;DHT22;683;48.738;9.226;2023-07-13T05:58:01;18.90;75.00
1379;DHT22;683;48.738;9.226;2023-07-13T06:00:28;18.80;75.60
1379;DHT22;683;48.738;9.226;2023-07-13T06:02:57;18.70;76.10
1379;DHT22;683;48.738;9.226;2023-07-13T06:05:24;18.60;75.70
1379;DHT22;683;48.738;9.226;2023-07-13T06:07:53;18.60;75.60
1379;DHT22;683;48.738;9.226;2023-07-13T06:10:20;18.50;75.70
1379;DHT22;683;48.738;9.226;2023-07-13T06:12:49;18.50;75.20
1379;DHT22;683;48.738;9.226;2023-07-13T06:15:17;18.40;74.90
1379;DHT22;683;48.738;9.226;2023-07-13T06:17:44;18.50;75.40
1379;DHT22;683;48.738;9.226;2023-07-13T06:20:12;18.70;75.50
1379;DHT22;683;48.738;9.226;2023-07-13T06:22:40;18.90;74.70
1379;DHT22;683;48.738;9.226;2023-07-13T06:25:08;18.90;75.60
1379;DHT22;683;48.738;9.226;2023-07-13T06:27:35;18.90;76.30
1379;DHT22;683;48.738;9.226;2023-07-13T06:30:05;19.00;75.20
1379;DHT22;683;48.738;9.226;2023-07-13T06:32:33;19.20;75.30
1379;DHT22;683;48.738;9.226;2023-07-13T06:35:00;19.30;74.20
1379;DHT22;683;48.738;9.226;2023-07-13T06:37:28;19.50;73.50
1379;DHT22;683;48.738;9.226;2023-07-13T06:39:55;19.70;72.00
1379;DHT22;683;48.738;9.226;2023-07-13T06:42:23;19.70;70.70
1379;DHT22;683;48.738;9.226;2023-07-13T06:44:51;19.90;70.50
1379;DHT22;683;48.738;9.226;2023-07-13T06:47:19;20.20;69.60
1379;DHT22;683;48.738;9.226;2023-07-13T06:49:48;20.50;68.00
1379;DHT22;683;48.738;9.226;2023-07-13T06:52:16;20.70;67.50
1379;DHT22;683;48.738;9.226;2023-07-13T06:54:50;20.90;66.90
1379;DHT22;683;48.738;9.226;2023-07-13T06:57:21;21.10;66.20
1379;DHT22;683;48.738;9.226;2023-07-13T06:59:51;21.40;64.80
1379;DHT22;683;48.738;9.226;2023-07-13T07:05:48;21.70;63.40
1379;DHT22;683;48.738;9.226;2023-07-13T07:08:16;21.60;62.30
1379;DHT22;683;48.738;9.226;2023-07-13T07:10:44;21.60;62.00
1379;DHT22;683;48.738;9.226;2023-07-13T07:13:12;21.50;61.60
1379;DHT22;683;48.738;9.226;2023-07-13T07:15:40;21.40;61.80
1379;DHT22;683;48.738;9.226;2023-07-13T07:18:07;21.40;61.50
1379;DHT22;683;48.738;9.226;2023-07-13T07:20:35;21.40;61.30
1379;DHT22;683;48.738;9.226;2023-07-13T07:23:04;21.40;61.20
1379;DHT22;683;48.738;9.226;2023-07-13T07:25:32;21.50;59.20
1379;DHT22;683;48.738;9.226;2023-07-13T07:28:03;21.40;58.70
1379;DHT22;683;48.738;9.226;2023-07-13T07:30:31;21.40;59.30
1379;DHT22;683;48.738;9.226;2023-07-13T07:32:59;21.50;59.00
1379;DHT22;683;48.738;9.226;2023-07-13T07:35:27;21.60;58.50
1379;DHT22;683;48.738;9.226;2023-07-13T07:37:55;21.70;57.70
1379;DHT22;683;48.738;9.226;2023-07-13T07:40:24;21.80;57.80
1379;DHT22;683;48.738;9.226;2023-07-13T07:42:53;21.80;57.50
1379;DHT22;683;48.738;9.226;2023-07-13T07:45:21;21.80;57.30
1379;DHT22;683;48.738;9.226;2023-07-13T07:47:49;21.90;57.00
1379;DHT22;683;48.738;9.226;2023-07-13T07:50:21;21.90;56.90
1379;DHT22;683;48.738;9.226;2023-07-13T07:52:51;22.00;57.00
1379;DHT22;683;48.738;9.226;2023-07-13T07:55:19;22.00;56.70
1379;DHT22;683;48.738;9.226;2023-07-13T07:57:48;22.10;56.30
1379;DHT22;683;48.738;9.226;2023-07-13T08:00:17;22.20;56.00
1379;DHT22;683;48.738;9.226;2023-07-13T08:02:46;22.20;55.50
1379;DHT22;683;48.738;9.226;2023-07-13T08:05:14;22.10;55.10
1379;DHT22;683;48.738;9.226;2023-07-13T08:07:46;22.20;55.20
1379;DHT22;683;48.738;9.226;2023-07-13T08:10:16;22.20;54.80
1379;DHT22;683;48.738;9.226;2023-07-13T08:12:44;22.30;54.70
1379;DHT22;683;48.738;9.226;2023-07-13T08:15:15;22.30;54.10
1379;DHT22;683;48.738;9.226;2023-07-13T08:17:43;22.30;54.50
1379;DHT22;683;48.738;9.226;2023-07-13T08:20:11;22.40;54.70
1379;DHT22;683;48.738;9.226;2023-07-13T08:22:38;22.50;54.90
1379;DHT22;683;48.738;9.226;2023-07-13T08:25:07;22.60;55.50
1379;DHT22;683;48.738;9.226;2023-07-13T08:27:35;22.70;55.10
1379;DHT22;683;48.738;9.226;2023-07-13T08:30:03;22.70;53.70
1379;DHT22;683;48.738;9.226;2023-07-13T08:32:33;22.70;55.20
1379;DHT22;683;48.738;9.226;2023-07-13T08:35:01;22.80;55.10
1379;DHT22;683;48.738;9.226;2023-07-13T08:37:29;22.70;54.50
1379;DHT22;683;48.738;9.226;2023-07-13T08:39:56;22.80;55.10
1379;DHT22;683;48.738;9.226;2023-07-13T08:42:33;22.90;53.70
1379;DHT22;683;48.738;9.226;2023-07-13T08:45:11;23.00;53.90
1379;DHT22;683;48.738;9.226;2023-07-13T08:47:46;23.10;53.70
1379;DHT22;683;48.738;9.226;2023-07-13T08:50:17;23.30;53.80
1379;DHT22;683;48.738;9.226;2023-07-13T08:52:46;23.50;53.80
1379;DHT22;683;48.738;9.226;2023-07-13T08:55:16;23.80;53.70
1379;DHT22;683;48.738;9.226;2023-07-13T08:57:48;24.00;53.00
1379;DHT22;683;48.738;9.226;2023-07-13T09:00:16;24.20;52.90
1379;DHT22;683;48.738;9.226;2023-07-13T09:02:48;24.30;51.70
1379;DHT22;683;48.738;9.226;2023-07-13T09:05:25;24.20;51.60
1379;DHT22;683;48.738;9.226;2023-07-13T09:08:30;24.30;51.70
1379;DHT22;683;48.738;9.226;2023-07-13T09:11:06;24.30;50.10
1379;DHT22;683;48.738;9.226;2023-07-13T09:13:46;24.10;50.20
1379;DHT22;683;48.738;9.226;2023-07-13T09:16:16;23.90;50.90
1379;DHT22;683;48.738;9.226;2023-07-13T09:18:47;23.90;50.50
1379;DHT22;683;48.738;9.226;2023-07-13T09:21:20;24.20;50.40
1379;DHT22;683;48.738;9.226;2023-07-13T09:23:52;24.60;50.60
1379;DHT22;683;48.738;9.226;2023-07-13T09:26:23;25.10;50.60
1379;DHT22;683;48.738;9.226;2023-07-13T09:29:03;25.70;49.40
1379;DHT22;683;48.738;9.226;2023-07-13T09:31:34;26.20;50.00
1379;DHT22;683;48.738;9.226;2023-07-13T09:34:09;26.40;49.30
1379;DHT22;683;48.738;9.226;2023-07-13T09:36:37;26.40;48.90
1379;DHT22;683;48.738;9.226;2023-07-13T09:39:10;26.20;48.20
1379;DHT22;683;48.738;9.226;2023-07-13T09:41:46;25.90;48.60
1379;DHT22;683;48.738;9.226;2023-07-13T09:44:16;25.60;49.30
1379;DHT22;683;48.738;9.226;2023-07-13T09:46:45;25.40;49.90
1379;DHT22;683;48.738;9.226;2023-07-13T09:49:14;25.50;48.20
1379;DHT22;683;48.738;9.226;2023-07-13T09:51:42;25.80;46.80
1379;DHT22;683;48.738;9.226;2023-07-13T09:54:21;26.00;46.60
1379;DHT22;683;48.738;9.226;2023-07-13T09:56:54;26.30;45.90
1379;DHT22;683;48.738;9.226;2023-07-13T09:59:26;26.60;46.00
1379;DHT22;683;48.738;9.226;2023-07-13T10:01:54;26.70;46.10
1379;DHT22;683;48.738;9.226;2023-07-13T10:04:31;26.70;47.20
1379;DHT22;683;48.738;9.226;2023-07-13T10:07:07;26.50;48.20
1379;DHT22;683;48.738;9.226;2023-07-13T10:09:35;26.50;47.70
1379;DHT22;683;48.738;9.226;2023-07-13T10:12:04;26.30;47.60
1379;DHT22;683;48.738;9.226;2023-07-13T10:14:42;26.20;47.90
1379;DHT22;683;48.738;9.226;2023-07-13T10:17:13;26.40;48.80
1379;DHT22;683;48.738;9.226;2023-07-13T10:19:43;26.70;48.10
1379;DHT22;683;48.738;9.226;2023-07-13T10:22:16;27.00;45.60
1379;DHT22;683;48.738;9.226;2023-07-13T10:24:50;27.20;45.80
1379;DHT22;683;48.738;9.226;2023-07-13T10:27:20;27.30;44.30
1379;DHT22;683;48.738;9.226;2023-07-13T10:29:55;27.30;44.00
1379;DHT22;683;48.738;9.226;2023-07-13T10:32:26;27.40;44.60
1379;DHT22;683;48.738;9.226;2023-07-13T10:34:55;27.50;44.30
1379;DHT22;683;48.738;9.226;2023-07-13T10:37:27;27.80;43.80
1379;DHT22;683;48.738;9.226;2023-07-13T10:39:59;27.90;42.80
1379;DHT22;683;48.738;9.226;2023-07-13T10:42:33;27.80;43.20
1379;DHT22;683;48.738;9.226;2023-07-13T10:45:01;27.70;43.30
1379;DHT22;683;48.738;9.226;2023-07-13T10:47:29;27.60;43.30
1379;DHT22;683;48.738;9.226;2023-07-13T10:50:00;27.60;42.70
1379;DHT22;683;48.738;9.226;2023-07-13T10:52:42;27.60;43.00
1379;DHT22;683;48.738;9.226;2023-07-13T10:55:35;27.50;43.30
1379;DHT22;683;48.738;9.226;2023-07-13T10:58:12;27.40;43.10
1379;DHT22;683;48.738;9.226;2023-07-13T11:01:02;27.30;43.90
1379;DHT22;683;48.738;9.226;2023-07-13T11:03:32;27.20;43.70
1379;DHT22;683;48.738;9.226;2023-07-13T11:06:15;27.10;43.80
1379;DHT22;683;48.738;9.226;2023-07-13T11:08:52;27.30;44.30
1379;DHT22;683;48.738;9.226;2023-07-13T11:11:36;27.50;42.90
1379;DHT22;683;48.738;9.226;2023-07-13T11:14:14;27.70;42.80
1379;DHT22;683;48.738;9.226;2023-07-13T11:16:52;27.70;42.00
1379;DHT22;683;48.738;9.226;2023-07-13T11:19:41;27.60;42.50
1379;DHT22;683;48.738;9.226;2023-07-13T11:22:24;27.60;42.10
1379;DHT22;683;48.738;9.226;2023-07-13T11:25:01;27.70;43.10
1379;DHT22;683;48.738;9.226;2023-07-13T11:27:40;27.80;43.30
1379;DHT22;683;48.738;9.226;2023-07-13T11:33:10;28.40;42.20
1379;DHT22;683;48.738;9.226;2023-07-13T11:35:45;28.60;41.30
1379;DHT22;683;48.738;9.226;2023-07-13T11:38:17;29.00;42.30
1379;DHT22;683;48.738;9.226;2023-07-13T11:40:47;29.30;41.90
1379;DHT22;683;48.738;9.226;2023-07-13T11:43:16;29.40;41.20
1379;DHT22;683;48.738;9.226;2023-07-13T11:45:44;29.20;40.90
1379;DHT22;683;48.738;9.226;2023-07-13T11:48:24;28.80;40.90
1379;DHT22;683;48.738;9.226;2023-07-13T11:50:55;28.20;41.80
1379;DHT22;683;48.738;9.226;2023-07-13T11:53:28;27.80;43.30
1379;DHT22;683;48.738;9.226;2023-07-13T11:55:57;27.60;42.60
1379;DHT22;683;48.738;9.226;2023-07-13T11:58:26;27.40;43.30
1379;DHT22;683;48.738;9.226;2023-07-13T12:00:56;27.30;43.70
1379;DHT22;683;48.738;9.226;2023-07-13T12:03:27;27.30;44.00
1379;DHT22;683;48.738;9.226;2023-07-13T12:06:01;27.40;44.30
1379;DHT22;683;48.738;9.226;2023-07-13T12:08:31;27.40;44.00
1379;DHT22;683;48.738;9.226;2023-07-13T12:11:05;27.30;43.60
1379;DHT22;683;48.738;9.226;2023-07-13T12:13:39;27.30;44.10
1379;DHT22;683;48.738;9.226;2023-07-13T12:16:15;27.50;44.20
1379;DHT22;683;48.738;9.226;2023-07-13T12:18:44;28.30;44.50
1379;DHT22;683;48.738;9.226;2023-07-13T12:21:19;29.50;42.30
1379;DHT22;683;48.738;9.226;2023-07-13T12:23:51;29.70;41.00
1379;DHT22;683;48.738;9.226;2023-07-13T12:26:19;29.50;41.60
1379;DHT22;683;48.738;9.226;2023-07-13T12:28:48;29.20;41.20
1379;DHT22;683;48.738;9.226;2023-07-13T12:31:30;29.30;42.50
1379;DHT22;683;48.738;9.226;2023-07-13T12:34:00;30.70;40.50
1379;DHT22;683;48.738;9.226;2023-07-13T12:36:33;31.00;39.00
1379;DHT22;683;48.738;9.226;2023-07-13T12:39:12;30.60;38.60
1379;DHT22;683;48.738;9.226;2023-07-13T12:41:40;30.20;38.70
1379;DHT22;683;48.738;9.226;2023-07-13T12:44:13;29.90;40.40
1379;DHT22;683;48.738;9.226;2023-07-13T12:46:52;31.30;38.30
1379;DHT22;683;48.738;9.226;2023-07-13T12:49:24;33.80;35.70
1379;DHT22;683;48.738;9.226;2023-07-13T12:51:56;35.90;32.10
1379;DHT22;683;48.738;9.226;2023-07-13T12:54:28;36.50;30.70
1379;DHT22;683;48.738;9.226;2023-07-13T12:56:57;35.90;30.70
1379;DHT22;683;48.738;9.226;2023-07-13T12:59:30;34.30;31.90
1379;DHT22;683;48.738;9.226;2023-07-13T13:01:59;32.60;33.80
1379;DHT22;683;48.738;9.226;2023-07-13T13:04:28;31.30;35.20
1379;DHT22;683;48.738;9.226;2023-07-13T13:07:04;30.50;37.20
1379;DHT22;683;48.738;9.226;2023-07-13T13:09:34;31.90;37.30
1379;DHT22;683;48.738;9.226;2023-07-13T13:12:01;34.30;34.60
1379;DHT22;683;48.738;9.226;2023-07-13T13:14:29;36.30;31.30
1379;DHT22;683;48.738;9.226;2023-07-13T13:16:56;37.30;29.40
1379;DHT22;683;48.738;9.226;2023-07-13T13:19:27;37.50;29.50
1379;DHT22;683;48.738;9.226;2023-07-13T13:21:56;38.90;29.10
1379;DHT22;683;48.738;9.226;2023-07-13T13:24:27;40.00;27.10
1379;DHT22;683;48.738;9.226;2023-07-13T13:26:56;41.10;26.20
1379;DHT22;683;48.738;9.226;2023-07-13T13:29:24;41.40;25.50
1379;DHT22;683;48.738;9.226;2023-07-13T13:31:52;41.60;25.40
1379;DHT22;683;48.738;9.226;2023-07-13T13:34:21;41.70;24.80
1379;DHT22;683;48.738;9.226;2023-07-13T13:36:50;39.80;25.20
1379;DHT22;683;48.738;9.226;2023-07-13T13:39:21;38.70;26.30
1379;DHT22;683;48.738;9.226;2023-07-13T13:41:51;38.80;26.20
1379;DHT22;683;48.738;9.226;2023-07-13T13:44:22;39.00;25.70
1379;DHT22;683;48.738;9.226;2023-07-13T13:46:51;39.30;25.50
1379;DHT22;683;48.738;9.226;2023-07-13T13:49:21;39.90;25.60
1379;DHT22;683;48.738;9.226;2023-07-13T13:51:50;40.70;25.20
1379;DHT22;683;48.738;9.226;2023-07-13T13:54:19;41.30;24.20
1379;DHT22;683;48.738;9.226;2023-07-13T13:56:48;41.80;24.20
1379;DHT22;683;48.738;9.226;2023-07-13T13:59:16;42.30;23.60
1379;DHT22;683;48.738;9.226;2023-07-13T14:01:47;42.90;24.20
1379;DHT22;683;48.738;9.226;2023-07-13T14:04:18;43.70;22.60
1379;DHT22;683;48.738;9.226;2023-07-13T14:06:46;43.60;22.70
1379;DHT22;683;48.738;9.226;2023-07-13T14:09:17;43.90;22.30
1379;DHT22;683;48.738;9.226;2023-07-13T14:11:45;44.20;22.10
1379;DHT22;683;48.738;9.226;2023-07-13T14:14:17;44.20;22.20
1379;DHT22;683;48.738;9.226;2023-07-13T14:16:47;42.10;22.40
1379;DHT22;683;48.738;9.226;2023-07-13T14:19:19;39.10;24.40
1379;DHT22;683;48.738;9.226;2023-07-13T14:21:46;37.40;26.40
1379;DHT22;683;48.738;9.226;2023-07-13T14:24:15;38.30;26.00
1379;DHT22;683;48.738;9.226;2023-07-13T14:26:43;39.60;25.30
1379;DHT22;683;48.738;9.226;2023-07-13T14:29:14;38.80;24.60
1379;DHT22;683;48.738;9.226;2023-07-13T14:31:43;36.80;26.40
1379;DHT22;683;48.738;9.226;2023-07-13T14:34:12;34.80;28.00
1379;DHT22;683;48.738;9.226;2023-07-13T14:36:42;34.00;29.40
1379;DHT22;683;48.738;9.226;2023-07-13T14:39:12;33.60;30.00
1379;DHT22;683;48.738;9.226;2023-07-13T14:41:40;32.50;31.30
1379;DHT22;683;48.738;9.226;2023-07-13T14:44:15;31.60;32.40
1379;DHT22;683;48.738;9.226;2023-07-13T14:46:44;30.80;33.30
1379;DHT22;683;48.738;9.226;2023-07-13T14:49:20;30.50;34.10
1379;DHT22;683;48.738;9.226;2023-07-13T14:51:48;31.50;32.50
1379;DHT22;683;48.738;9.226;2023-07-13T14:54:16;31.60;32.40
1379;DHT22;683;48.738;9.226;2023-07-13T14:56:43;31.20;32.80
1379;DHT22;683;48.738;9.226;2023-07-13T14:59:11;30.80;33.70
1379;DHT22;683;48.738;9.226;2023-07-13T15:01:39;30.30;34.00
1379;DHT22;683;48.738;9.226;2023-07-13T15:04:08;30.40;34.50
1379;DHT22;683;48.738;9.226;2023-07-13T15:06:56;31.50;33.80
1379;DHT22;683;48.738;9.226;2023-07-13T15:09:23;34.20;30.10
1379;DHT22;683;48.738;9.226;2023-07-13T15:11:52;35.90;28.30
1379;DHT22;683;48.738;9.226;2023-07-13T15:14:20;37.10;27.10
1379;DHT22;683;48.738;9.226;2023-07-13T15:16:49;36.70;27.10
1379;DHT22;683;48.738;9.226;2023-07-13T15:19:18;35.30;28.00
1379;DHT22;683;48.738;9.226;2023-07-13T15:21:46;33.50;29.90
1379;DHT22;683;48.738;9.226;2023-07-13T15:24:16;32.20;31.40
1379;DHT22;683;48.738;9.226;2023-07-13T15:26:43;32.10;32.10
1379;DHT22;683;48.738;9.226;2023-07-13T15:29:14;34.20;30.30
1379;DHT22;683;48.738;9.226;2023-07-13T15:31:47;36.30;29.10
1379;DHT22;683;48.738;9.226;2023-07-13T15:34:39;38.10;26.90
1379;DHT22;683;48.738;9.226;2023-07-13T15:37:12;39.60;26.00
1379;DHT22;683;48.738;9.226;2023-07-13T15:39:42;40.70;24.80
1379;DHT22;683;48.738;9.226;2023-07-13T15:42:13;41.40;24.40
1379;DHT22;683;48.738;9.226;2023-07-13T15:44:41;42.00;24.00
1379;DHT22;683;48.738;9.226;2023-07-13T15:47:10;42.40;23.00
1379;DHT22;683;48.738;9.226;2023-07-13T15:49:39;42.10;23.10
1379;DHT22;683;48.738;9.226;2023-07-13T15:52:13;40.70;23.90
1379;DHT22;683;48.738;9.226;2023-07-13T15:54:45;40.10;24.40
1379;DHT22;683;48.738;9.226;2023-07-13T15:57:13;39.80;25.20
1379;DHT22;683;48.738;9.226;2023-07-13T15:59:41;40.70;24.40
1379;DHT22;683;48.738;9.226;2023-07-13T16:02:13;41.50;23.80
1379;DHT22;683;48.738;9.226;2023-07-13T16:04:41;42.00;23.10
1379;DHT22;683;48.738;9.226;2023-07-13T16:07:10;41.90;23.20
1379;DHT22;683;48.738;9.226;2023-07-13T16:09:38;41.80;22.90
1379;DHT22;683;48.738;9.226;2023-07-13T16:12:11;41.60;22.80
1379;DHT22;683;48.738;9.226;2023-07-13T16:14:39;41.30;22.80
1379;DHT22;683;48.738;9.226;2023-07-13T16:17:09;40.80;23.10
1379;DHT22;683;48.738;9.226;2023-07-13T16:19:37;40.20;23.40
1379;DHT22;683;48.738;9.226;2023-07-13T16:22:05;40.00;24.10
1379;DHT22;683;48.738;9.226;2023-07-13T16:24:33;40.50;23.90
1379;DHT22;683;48.738;9.226;2023-07-13T16:27:00;41.20;23.30
1379;DHT22;683;48.738;9.226;2023-07-13T16:29:31;41.60;23.40
1379;DHT22;683;48.738;9.226;2023-07-13T16:32:00;41.70;22.70
1379;DHT22;683;48.738;9.226;2023-07-13T16:34:28;41.10;23.00
1379;DHT22;683;48.738;9.226;2023-07-13T16:36:56;40.60;23.40
1379;DHT22;683;48.738;9.226;2023-07-13T16:39:26;40.40;23.70
1379;DHT22;683;48.738;9.226;2023-07-13T16:41:55;40.80;23.90
1379;DHT22;683;48.738;9.226;2023-07-13T16:44:23;41.30;23.20